sensor_id;sensor_type;location;lat;lon;timestamp;temperature;humidity
35343;DHT22;21449;48.146;11.594;2022-08-23T09:27:44;16.50;97.80
35343;DHT22;21449;48.146;11.594;2022-08-23T09:31:48;23.60;82.20
35343;DHT22;21449;48.146;11.594;2022-08-23T09:36:14;23.60;81.90
35343;DHT22;21449;48.146;11.594;2022-08-23T09:40:18;23.70;80.80
35343;DHT22;21449;48.146;11.594;2022-08-23T09:44:37;23.70;79.60
35343;DHT22;21449;48.146;11.594;2022-08-23T09:48:42;23.70;77.70
35343;DHT22;21449;48.146;11.594;2022-08-23T09:52:46;24.00;76.50
35343;DHT22;21449;48.146;11.594;2022-08-23T09:56:51;24.10;76.00
35343;DHT22;21449;48.146;11.594;2022-08-23T10:01:08;24.40;73.90
35343;DHT22;21449;48.146;11.594;2022-08-23T10:05:17;24.30;69.70
35343;DHT22;21449;48.146;11.594;2022-08-23T10:09:25;24.50;68.20
35343;DHT22;21449;48.146;11.594;2022-08-23T10:13:28;24.70;67.80
35343;DHT22;21449;48.146;11.594;2022-08-23T10:17:39;24.30;69.00
35343;DHT22;21449;48.146;11.594;2022-08-23T10:21:52;24.90;66.20
35343;DHT22;21449;48.146;11.594;2022-08-23T10:25:59;25.10;65.80
35343;DHT22;21449;48.146;11.594;2022-08-23T10:30:05;25.20;65.50
35343;DHT22;21449;48.146;11.594;2022-08-23T10:34:45;25.20;64.90
35343;DHT22;21449;48.146;11.594;2022-08-23T10:38:55;25.20;64.90
35343;DHT22;21449;48.146;11.594;2022-08-23T10:43:09;25.10;63.60
35343;DHT22;21449;48.146;11.594;2022-08-23T10:47:19;25.10;61.90
35343;DHT22;21449;48.146;11.594;2022-08-23T10:51:31;25.10;61.20
35343;DHT22;21449;48.146;11.594;2022-08-23T10:55:38;25.60;60.70
35343;DHT22;21449;48.146;11.594;2022-08-23T10:59:42;25.40;59.20
35343;DHT22;21449;48.146;11.594;2022-08-23T11:03:51;25.80;60.40
35343;DHT22;21449;48.146;11.594;2022-08-23T11:08:03;26.00;60.30
35343;DHT22;21449;48.146;11.594;2022-08-23T11:12:17;25.90;59.30
35343;DHT22;21449;48.146;11.594;2022-08-23T11:16:26;25.70;59.50
35343;DHT22;21449;48.146;11.594;2022-08-23T11:25:38;25.60;57.30
35343;DHT22;21449;48.146;11.594;2022-08-23T11:29:40;25.60;58.20
35343;DHT22;21449;48.146;11.594;2022-08-23T11:33:47;26.20;57.80
35343;DHT22;21449;48.146;11.594;2022-08-23T11:37:54;26.30;59.70
35343;DHT22;21449;48.146;11.594;2022-08-23T11:42:05;26.20;56.50
35343;DHT22;21449;48.146;11.594;2022-08-23T11:46:26;26.40;56.40
35343;DHT22;21449;48.146;11.594;2022-08-23T11:50:35;26.50;55.40
35343;DHT22;21449;48.146;11.594;2022-08-23T11:54:48;26.60;53.90
35343;DHT22;21449;48.146;11.594;2022-08-23T11:59:11;26.50;55.10
35343;DHT22;21449;48.146;11.594;2022-08-23T12:03:22;26.30;55.80
35343;DHT22;21449;48.146;11.594;2022-08-23T12:07:44;26.40;56.70
35343;DHT22;21449;48.146;11.594;2022-08-23T12:16:42;26.30;55.20
35343;DHT22;21449;48.146;11.594;2022-08-23T12:20:57;26.50;55.40
35343;DHT22;21449;48.146;11.594;2022-08-23T12:25:03;26.50;55.00
35343;DHT22;21449;48.146;11.594;2022-08-23T12:29:11;26.50;53.90
35343;DHT22;21449;48.146;11.594;2022-08-23T12:33:28;26.60;53.70
35343;DHT22;21449;48.146;11.594;2022-08-23T12:37:39;26.50;53.30
35343;DHT22;21449;48.146;11.594;2022-08-23T12:41:48;26.20;53.90
35343;DHT22;21449;48.146;11.594;2022-08-23T12:45:53;26.30;55.60
35343;DHT22;21449;48.146;11.594;2022-08-23T12:50:02;26.50;55.30
35343;DHT22;21449;48.146;11.594;2022-08-23T12:54:12;26.60;54.90
35343;DHT22;21449;48.146;11.594;2022-08-23T12:58:24;26.30;54.60
35343;DHT22;21449;48.146;11.594;2022-08-23T13:02:33;26.60;55.60
35343;DHT22;21449;48.146;11.594;2022-08-23T13:06:42;26.60;55.30
35343;DHT22;21449;48.146;11.594;2022-08-23T13:10:46;26.60;54.20
35343;DHT22;21449;48.146;11.594;2022-08-23T13:14:49;26.90;54.40
35343;DHT22;21449;48.146;11.594;2022-08-23T13:18:53;27.00;53.50
35343;DHT22;21449;48.146;11.594;2022-08-23T13:23:03;27.10;53.50
35343;DHT22;21449;48.146;11.594;2022-08-23T13:27:15;26.90;53.20
35343;DHT22;21449;48.146;11.594;2022-08-23T13:31:18;26.70;53.40
35343;DHT22;21449;48.146;11.594;2022-08-23T13:35:38;26.70;53.60
35343;DHT22;21449;48.146;11.594;2022-08-23T13:39:48;26.80;53.60
35343;DHT22;21449;48.146;11.594;2022-08-23T13:43:50;27.00;54.50
35343;DHT22;21449;48.146;11.594;2022-08-23T13:47:55;26.70;55.60
35343;DHT22;21449;48.146;11.594;2022-08-23T13:52:08;26.60;56.10
35343;DHT22;21449;48.146;11.594;2022-08-23T13:56:36;26.70;56.30
35343;DHT22;21449;48.146;11.594;2022-08-23T14:00:39;26.50;56.80
35343;DHT22;21449;48.146;11.594;2022-08-23T14:04:47;26.50;56.60
35343;DHT22;21449;48.146;11.594;2022-08-23T14:08:50;26.50;55.60
35343;DHT22;21449;48.146;11.594;2022-08-23T14:12:55;26.70;55.60
35343;DHT22;21449;48.146;11.594;2022-08-23T14:16:58;26.70;54.60
35343;DHT22;21449;48.146;11.594;2022-08-23T14:21:04;26.60;54.30
35343;DHT22;21449;48.146;11.594;2022-08-23T14:25:07;26.40;52.60
35343;DHT22;21449;48.146;11.594;2022-08-23T14:29:12;26.20;52.20
35343;DHT22;21449;48.146;11.594;2022-08-23T14:33:16;26.30;52.70
35343;DHT22;21449;48.146;11.594;2022-08-23T14:37:18;26.30;53.60
35343;DHT22;21449;48.146;11.594;2022-08-23T14:41:40;26.40;53.90
35343;DHT22;21449;48.146;11.594;2022-08-23T14:45:45;26.40;53.20
35343;DHT22;21449;48.146;11.594;2022-08-23T14:49:47;26.30;51.20
35343;DHT22;21449;48.146;11.594;2022-08-23T14:53:55;26.30;51.50
35343;DHT22;21449;48.146;11.594;2022-08-23T14:57:57;26.30;52.00
35343;DHT22;21449;48.146;11.594;2022-08-23T15:02:03;26.50;51.70
35343;DHT22;21449;48.146;11.594;2022-08-23T15:06:06;26.50;52.60
35343;DHT22;21449;48.146;11.594;2022-08-23T15:10:10;26.20;51.30
35343;DHT22;21449;48.146;11.594;2022-08-23T15:14:32;26.20;50.80
35343;DHT22;21449;48.146;11.594;2022-08-23T15:18:38;26.10;50.00
35343;DHT22;21449;48.146;11.594;2022-08-23T15:22:40;26.00;49.30
35343;DHT22;21449;48.146;11.594;2022-08-23T15:26:46;26.10;49.90
35343;DHT22;21449;48.146;11.594;2022-08-23T15:30:49;26.00;50.50
35343;DHT22;21449;48.146;11.594;2022-08-23T15:34:54;25.90;49.10
35343;DHT22;21449;48.146;11.594;2022-08-23T15:38:56;25.60;49.20
35343;DHT22;21449;48.146;11.594;2022-08-23T15:42:58;25.70;49.40
35343;DHT22;21449;48.146;11.594;2022-08-23T15:47:11;25.40;49.40
35343;DHT22;21449;48.146;11.594;2022-08-23T15:51:18;25.40;50.20
35343;DHT22;21449;48.146;11.594;2022-08-23T15:55:22;25.40;51.50
35343;DHT22;21449;48.146;11.594;2022-08-23T15:59:24;25.30;52.10
35343;DHT22;21449;48.146;11.594;2022-08-23T16:03:27;25.30;52.50
35343;DHT22;21449;48.146;11.594;2022-08-23T16:07:32;25.20;51.50
35343;DHT22;21449;48.146;11.594;2022-08-23T16:11:34;25.20;51.60
35343;DHT22;21449;48.146;11.594;2022-08-23T16:15:37;25.10;51.10
35343;DHT22;21449;48.146;11.594;2022-08-23T16:19:40;25.00;52.40
35343;DHT22;21449;48.146;11.594;2022-08-23T16:23:47;24.90;52.50
35343;DHT22;21449;48.146;11.594;2022-08-23T16:27:49;24.80;52.70
35343;DHT22;21449;48.146;11.594;2022-08-23T16:31:51;24.60;52.50
35343;DHT22;21449;48.146;11.594;2022-08-23T16:35:53;24.60;52.40
35343;DHT22;21449;48.146;11.594;2022-08-23T16:39:58;24.60;53.40
35343;DHT22;21449;48.146;11.594;2022-08-23T16:44:00;24.60;54.00
35343;DHT22;21449;48.146;11.594;2022-08-23T16:48:03;24.50;53.20
35343;DHT22;21449;48.146;11.594;2022-08-23T16:52:05;24.50;53.80
35343;DHT22;21449;48.146;11.594;2022-08-23T16:56:09;24.50;54.00
35343;DHT22;21449;48.146;11.594;2022-08-23T17:00:12;24.70;54.10
35343;DHT22;21449;48.146;11.594;2022-08-23T17:04:15;25.00;54.50
35343;DHT22;21449;48.146;11.594;2022-08-23T17:08:17;25.60;54.00
35343;DHT22;21449;48.146;11.594;2022-08-23T17:12:22;26.40;52.90
35343;DHT22;21449;48.146;11.594;2022-08-23T17:16:24;27.00;51.90
35343;DHT22;21449;48.146;11.594;2022-08-23T17:20:29;27.10;51.70
35343;DHT22;21449;48.146;11.594;2022-08-23T17:24:32;27.00;51.60
35343;DHT22;21449;48.146;11.594;2022-08-23T17:28:36;26.50;52.50
35343;DHT22;21449;48.146;11.594;2022-08-23T17:32:39;25.50;55.70
35343;DHT22;21449;48.146;11.594;2022-08-23T17:36:44;24.50;57.60
35343;DHT22;21449;48.146;11.594;2022-08-23T17:40:48;23.60;59.40
35343;DHT22;21449;48.146;11.594;2022-08-23T17:44:53;23.00;61.70
35343;DHT22;21449;48.146;11.594;2022-08-23T17:48:55;22.50;62.80
35343;DHT22;21449;48.146;11.594;2022-08-23T17:52:57;22.10;64.90
35343;DHT22;21449;48.146;11.594;2022-08-23T17:57:00;21.90;66.60
35343;DHT22;21449;48.146;11.594;2022-08-23T18:01:07;21.70;66.90
35343;DHT22;21449;48.146;11.594;2022-08-23T18:05:09;21.50;67.30
35343;DHT22;21449;48.146;11.594;2022-08-23T18:09:12;21.30;70.80
35343;DHT22;21449;48.146;11.594;2022-08-23T18:13:14;20.90;74.10
35343;DHT22;21449;48.146;11.594;2022-08-23T18:17:19;20.60;75.10
35343;DHT22;21449;48.146;11.594;2022-08-23T18:21:21;20.30;77.70
35343;DHT22;21449;48.146;11.594;2022-08-23T18:25:24;20.10;79.00
35343;DHT22;21449;48.146;11.594;2022-08-23T18:29:26;19.90;80.70
35343;DHT22;21449;48.146;11.594;2022-08-23T18:33:31;19.70;81.20
35343;DHT22;21449;48.146;11.594;2022-08-23T18:37:48;19.60;84.90
35343;DHT22;21449;48.146;11.594;2022-08-23T18:41:50;19.40;86.50
35343;DHT22;21449;48.146;11.594;2022-08-23T18:45:54;19.20;88.10
35343;DHT22;21449;48.146;11.594;2022-08-23T18:49:59;19.10;90.00
35343;DHT22;21449;48.146;11.594;2022-08-23T18:54:02;19.00;91.90
35343;DHT22;21449;48.146;11.594;2022-08-23T18:58:04;18.80;92.30
35343;DHT22;21449;48.146;11.594;2022-08-23T19:02:06;18.70;93.90
35343;DHT22;21449;48.146;11.594;2022-08-23T19:06:11;18.60;94.90
35343;DHT22;21449;48.146;11.594;2022-08-23T19:10:13;18.40;96.30
35343;DHT22;21449;48.146;11.594;2022-08-23T19:14:21;18.30;98.00
35343;DHT22;21449;48.146;11.594;2022-08-23T19:18:23;18.20;98.50
35343;DHT22;21449;48.146;11.594;2022-08-23T19:22:27;18.10;98.70
35343;DHT22;21449;48.146;11.594;2022-08-23T19:26:31;18.00;99.00
35343;DHT22;21449;48.146;11.594;2022-08-23T19:30:34;17.90;99.00
35343;DHT22;21449;48.146;11.594;2022-08-23T19:34:36;17.90;99.90
35343;DHT22;21449;48.146;11.594;2022-08-23T19:38:41;17.70;99.90
35343;DHT22;21449;48.146;11.594;2022-08-23T19:42:43;17.60;99.90
35343;DHT22;21449;48.146;11.594;2022-08-23T19:46:45;17.50;99.90
35343;DHT22;21449;48.146;11.594;2022-08-23T19:50:47;17.40;99.90
35343;DHT22;21449;48.146;11.594;2022-08-23T19:54:52;17.30;99.90
35343;DHT22;21449;48.146;11.594;2022-08-23T19:58:54;17.30;99.90
35343;DHT22;21449;48.146;11.594;2022-08-23T20:02:56;17.20;99.90
35343;DHT22;21449;48.146;11.594;2022-08-23T20:06:59;17.20;99.90
35343;DHT22;21449;48.146;11.594;2022-08-23T20:11:04;17.30;99.90
35343;DHT22;21449;48.146;11.594;2022-08-23T20:15:08;17.30;99.90
